createdAt,value
2022-09-07T00:00:53.707Z,74.67
2022-09-07T00:03:20.641Z,75.13
2022-09-07T00:05:49.944Z,75.40
2022-09-07T00:08:19.485Z,75.58
2022-09-07T00:11:02.317Z,75.93
2022-09-07T00:13:35.060Z,76.10
2022-09-07T00:16:06.786Z,76.15
2022-09-07T00:18:33.883Z,76.09
2022-09-07T00:21:02.422Z,76.19
2022-09-07T00:23:32.539Z,76.80
2022-09-07T00:26:05.093Z,77.24
2022-09-07T00:28:34.433Z,76.49
2022-09-07T00:31:01.245Z,76.25
2022-09-07T00:33:28.168Z,76.39
2022-09-07T00:35:55.146Z,76.39
2022-09-07T00:38:24.228Z,76.44
2022-09-07T00:40:50.887Z,76.59
2022-09-07T00:43:39.548Z,77.16
2022-09-07T00:46:12.294Z,77.26
2022-09-07T00:48:42.464Z,77.53
2022-09-07T00:51:14.867Z,77.93
2022-09-07T00:53:44.743Z,77.76
2022-09-07T00:56:15.203Z,77.70
2022-09-07T00:58:46.801Z,78.05
2022-09-07T01:01:17.338Z,78.20
2022-09-07T01:03:48.904Z,78.53
2022-09-07T01:06:26.626Z,78.50
2022-09-07T01:08:55.307Z,78.74
2022-09-07T01:11:23.368Z,79.01
2022-09-07T01:13:52.387Z,79.23
2022-09-07T01:16:57.807Z,78.98
2022-09-07T01:19:29.454Z,79.45
2022-09-07T01:22:17.306Z,79.20
2022-09-07T01:24:55.259Z,79.83
2022-09-07T01:27:37.002Z,79.93
2022-09-07T01:30:13.081Z,80.33
2022-09-07T01:33:10.723Z,80.33
2022-09-07T01:35:40.578Z,80.31
2022-09-07T01:38:28.650Z,80.12
2022-09-07T01:41:15.548Z,80.56
2022-09-07T01:44:14.417Z,80.14
2022-09-07T01:46:56.868Z,80.83
2022-09-07T01:49:41.682Z,81.04
2022-09-07T01:52:31.029Z,81.37
2022-09-07T01:55:03.703Z,81.98
2022-09-07T01:58:04.649Z,81.68
2022-09-07T02:00:34.262Z,82.28
2022-09-07T02:03:00.853Z,82.17
2022-09-07T02:05:39.062Z,82.49
2022-09-07T02:08:14.025Z,82.65
2022-09-07T02:10:49.038Z,82.35
2022-09-07T02:13:25.289Z,82.43
2022-09-07T02:15:58.348Z,82.80
2022-09-07T02:18:28.720Z,83.16
2022-09-07T02:21:00.275Z,83.08
2022-09-07T02:23:33.139Z,83.27
2022-09-07T02:26:03.993Z,83.11
2022-09-07T02:28:38.340Z,83.49
2022-09-07T02:31:06.262Z,83.53
2022-09-07T02:33:33.182Z,83.66
2022-09-07T02:36:01.735Z,83.77
2022-09-07T02:38:28.660Z,84.03
2022-09-07T02:40:57.336Z,84.40
2022-09-07T02:43:28.092Z,84.66
2022-09-07T02:45:57.668Z,84.85
2022-09-07T02:48:48.586Z,85.01
2022-09-07T02:51:17.858Z,85.29
2022-09-07T02:53:56.560Z,85.50
2022-09-07T02:56:37.043Z,85.66
2022-09-07T02:59:32.242Z,85.75
2022-09-07T03:02:12.952Z,85.43
2022-09-07T03:05:14.712Z,86.08
2022-09-07T03:07:49.236Z,85.87
2022-09-07T03:10:19.052Z,86.42
2022-09-07T03:12:48.124Z,86.20
2022-09-07T03:15:24.247Z,86.60
2022-09-07T03:17:51.677Z,86.50
2022-09-07T03:20:21.414Z,87.01
2022-09-07T03:22:49.871Z,87.21
2022-09-07T03:25:17.552Z,87.15
2022-09-07T03:27:44.539Z,87.00
2022-09-07T03:30:12.893Z,87.25
2022-09-07T03:32:39.542Z,87.04
2022-09-07T03:35:08.209Z,86.57
2022-09-07T03:37:40.564Z,86.80
2022-09-07T03:40:09.642Z,86.77
2022-09-07T03:42:36.833Z,86.76
2022-09-07T03:45:04.181Z,86.46
2022-09-07T03:47:30.880Z,86.15
2022-09-07T03:49:57.630Z,86.16
2022-09-07T03:52:24.177Z,86.16
2022-09-07T03:54:50.726Z,85.55
2022-09-07T03:57:20.342Z,85.47
2022-09-07T03:59:52.426Z,85.89
2022-09-07T04:02:19.350Z,86.18
2022-09-07T04:04:46.183Z,86.02
2022-09-07T04:07:13.339Z,86.34
2022-09-07T04:09:40.109Z,86.16
2022-09-07T04:12:06.826Z,86.42
2022-09-07T04:14:33.433Z,86.60
2022-09-07T04:16:59.995Z,86.60
2022-09-07T04:19:26.556Z,86.79
2022-09-07T04:21:53.361Z,86.81
2022-09-07T04:24:19.907Z,86.77
2022-09-07T04:26:46.412Z,86.79
2022-09-07T04:29:15.235Z,86.91
2022-09-07T04:31:44.128Z,86.84
2022-09-07T04:34:14.383Z,86.61
2022-09-07T04:36:41.005Z,86.55
2022-09-07T04:39:07.567Z,87.08
2022-09-07T04:41:34.970Z,86.94
2022-09-07T04:44:03.646Z,87.04
2022-09-07T04:46:35.675Z,87.11
2022-09-07T04:49:07.183Z,87.37
2022-09-07T04:51:37.481Z,87.37
2022-09-07T04:54:07.344Z,87.28
2022-09-07T04:56:34.039Z,87.36
2022-09-07T04:59:06.175Z,87.37
2022-09-07T05:01:33.299Z,87.37
2022-09-07T05:04:01.293Z,87.36
2022-09-07T05:06:30.784Z,87.52
2022-09-07T05:08:58.703Z,87.61
2022-09-07T05:11:29.060Z,87.58
2022-09-07T05:13:58.203Z,87.71
2022-09-07T05:16:25.457Z,87.62
2022-09-07T05:19:01.616Z,87.53
2022-09-07T05:21:31.363Z,87.06
2022-09-07T05:23:58.826Z,86.64
2022-09-07T05:26:28.549Z,86.39
2022-09-07T05:31:48.299Z,85.80
2022-09-07T05:34:31.387Z,85.63
2022-09-07T05:36:58.583Z,85.51
2022-09-07T05:39:25.656Z,85.49
2022-09-07T05:41:52.271Z,85.22
2022-09-07T05:47:10.880Z,84.69
2022-09-07T05:49:37.622Z,84.43
2022-09-07T05:52:04.205Z,84.38
2022-09-07T05:54:30.787Z,84.23
2022-09-07T05:56:59.792Z,84.17
2022-09-07T05:59:26.330Z,84.07
2022-09-07T06:01:53.001Z,83.88
2022-09-07T06:04:19.670Z,84.06
2022-09-07T06:07:04.661Z,84.08
2022-09-07T06:09:32.940Z,83.63
2022-09-07T06:11:59.980Z,82.97
2022-09-07T06:14:26.544Z,82.54
2022-09-07T06:16:55.589Z,82.53
2022-09-07T06:19:24.787Z,83.07
2022-09-07T06:21:53.504Z,83.23
2022-09-07T06:24:20.003Z,83.31
2022-09-07T06:26:48.793Z,83.45
2022-09-07T06:29:15.440Z,82.62
2022-09-07T06:34:36.027Z,80.64
2022-09-07T06:37:02.575Z,79.83
2022-09-07T06:39:29.095Z,77.46
2022-09-07T06:44:30.393Z,71.54
2022-09-07T06:47:04.666Z,71.22
2022-09-07T06:49:31.727Z,72.65
2022-09-07T06:51:58.267Z,70.02
2022-09-07T06:57:16.048Z,74.75
2022-09-07T06:59:42.674Z,76.47
2022-09-07T07:02:11.526Z,74.64
2022-09-07T07:04:40.806Z,68.50
2022-09-07T07:07:14.346Z,60.28
2022-09-07T07:09:41.618Z,58.71
2022-09-07T07:12:08.835Z,63.64
2022-09-07T07:14:39.875Z,66.89
2022-09-07T07:17:13.054Z,66.47
2022-09-07T07:19:39.583Z,65.27
2022-09-07T07:24:52.780Z,59.10
2022-09-07T07:27:21.581Z,58.05
2022-09-07T07:29:49.259Z,57.35
2022-09-07T07:32:16.161Z,59.75
2022-09-07T07:35:19.846Z,62.63
2022-09-07T07:37:48.291Z,65.38
2022-09-07T07:40:16.597Z,66.80
2022-09-07T07:42:45.133Z,68.81
2022-09-07T07:48:00.469Z,70.52
2022-09-07T07:50:34.615Z,69.81
2022-09-07T07:55:52.209Z,68.99
2022-09-07T07:58:19.679Z,65.71
2022-09-07T08:00:55.829Z,63.75
2022-09-07T08:03:23.478Z,60.64
2022-09-07T08:05:50.432Z,58.78
2022-09-07T08:08:17.024Z,57.84
2022-09-07T08:10:43.704Z,58.11
2022-09-07T08:13:14.189Z,60.60
2022-09-07T08:15:50.702Z,61.35
2022-09-07T08:18:20.854Z,61.34
2022-09-07T08:20:50.192Z,62.33
2022-09-07T08:23:20.504Z,61.30
2022-09-07T08:25:54.659Z,59.73
2022-09-07T08:28:24.023Z,57.74
2022-09-07T08:30:51.549Z,58.33
2022-09-07T08:33:20.452Z,55.49
2022-09-07T08:35:59.031Z,53.37
2022-09-07T08:38:30.510Z,51.04
2022-09-07T08:40:57.982Z,49.54
2022-09-07T08:44:06.241Z,49.02
2022-09-07T08:46:45.466Z,47.71
2022-09-07T08:49:31.285Z,48.87
2022-09-07T08:52:09.199Z,49.16
2022-09-07T08:54:39.131Z,48.33
2022-09-07T08:57:28.271Z,49.10
2022-09-07T09:00:16.629Z,51.16
2022-09-07T09:02:44.658Z,50.00
2022-09-07T09:05:46.232Z,50.37
2022-09-07T09:08:18.406Z,49.33
2022-09-07T09:11:09.571Z,49.28
2022-09-07T09:13:44.178Z,49.33
2022-09-07T09:16:20.018Z,50.00
2022-09-07T09:18:52.929Z,50.96
2022-09-07T09:21:19.823Z,50.63
2022-09-07T09:23:53.623Z,49.90
2022-09-07T09:26:25.734Z,50.87
2022-09-07T09:28:56.253Z,50.96
2022-09-07T09:31:36.726Z,51.09
2022-09-07T09:34:07.345Z,50.83
2022-09-07T09:36:50.959Z,51.82
2022-09-07T09:39:35.630Z,51.66
2022-09-07T09:42:14.462Z,51.12
2022-09-07T09:44:44.280Z,50.90
2022-09-07T09:47:34.533Z,51.81
2022-09-07T09:53:40.261Z,51.27
2022-09-07T09:56:10.175Z,51.39
2022-09-07T10:01:36.864Z,51.26
2022-09-07T10:04:35.952Z,52.13
2022-09-07T10:07:10.629Z,52.41
2022-09-07T10:09:41.019Z,52.77
2022-09-07T10:12:24.529Z,52.94
2022-09-07T10:14:54.204Z,53.98
2022-09-07T10:17:41.673Z,53.97
2022-09-07T10:20:18.632Z,53.64
2022-09-07T10:22:55.084Z,54.00
2022-09-07T10:25:46.343Z,53.71
2022-09-07T10:28:25.323Z,53.57
2022-09-07T10:31:14.750Z,53.49
2022-09-07T10:34:32.536Z,53.34
2022-09-07T10:37:11.412Z,53.42
2022-09-07T10:39:42.478Z,52.93
2022-09-07T10:42:32.207Z,52.48
2022-09-07T10:45:21.825Z,52.40
2022-09-07T10:48:05.783Z,51.83
2022-09-07T10:50:56.840Z,51.68
2022-09-07T10:53:44.177Z,50.41
2022-09-07T10:56:28.453Z,50.43
2022-09-07T10:59:08.834Z,50.02
2022-09-07T11:01:55.078Z,50.29
2022-09-07T11:04:40.666Z,49.70
2022-09-07T11:07:19.203Z,49.18
2022-09-07T11:09:51.945Z,48.43
2022-09-07T11:12:26.027Z,48.08
2022-09-07T11:15:14.215Z,47.84
2022-09-07T11:17:56.517Z,47.66
2022-09-07T11:20:38.565Z,48.39
2022-09-07T11:23:33.045Z,48.14
2022-09-07T11:26:07.442Z,47.77
2022-09-07T11:28:46.386Z,45.82
2022-09-07T11:31:22.163Z,46.55
2022-09-07T11:36:58.983Z,46.62
2022-09-07T11:39:30.707Z,47.01
2022-09-07T11:45:13.598Z,47.08
2022-09-07T11:47:51.881Z,46.94
2022-09-07T11:50:22.543Z,46.90
2022-09-07T11:53:05.977Z,46.83
2022-09-07T11:55:38.353Z,46.26
2022-09-07T11:58:44.487Z,47.13
2022-09-07T12:01:28.811Z,46.56
2022-09-07T12:04:15.428Z,46.01
2022-09-07T12:07:02.226Z,45.64
2022-09-07T12:09:59.932Z,45.58
2022-09-07T12:12:42.167Z,45.54
2022-09-07T12:15:37.625Z,45.39
2022-09-07T12:18:39.446Z,45.98
2022-09-07T12:21:46.195Z,46.02
2022-09-07T12:24:41.071Z,45.07
2022-09-07T12:27:31.776Z,44.72
2022-09-07T12:29:58.275Z,44.64
2022-09-07T12:32:54.519Z,45.11
2022-09-07T12:35:31.078Z,43.80
2022-09-07T12:38:02.001Z,43.06
2022-09-07T12:40:32.275Z,42.94
2022-09-07T12:43:13.942Z,42.42
2022-09-07T12:45:40.573Z,42.17
2022-09-07T12:48:12.619Z,41.90
2022-09-07T12:50:53.576Z,41.96
2022-09-07T12:53:52.145Z,41.58
2022-09-07T12:56:24.859Z,41.32
2022-09-07T12:59:21.859Z,41.73
2022-09-07T13:02:11.962Z,41.07
2022-09-07T13:04:50.740Z,41.96
2022-09-07T13:07:35.789Z,41.45
2022-09-07T13:10:07.792Z,40.83
2022-09-07T13:12:57.893Z,41.32
2022-09-07T13:15:49.036Z,40.95
2022-09-07T13:18:27.517Z,41.05
2022-09-07T13:21:17.446Z,41.78
2022-09-07T13:27:06.066Z,41.24
2022-09-07T13:29:38.510Z,41.06
2022-09-07T13:32:20.271Z,40.28
2022-09-07T13:35:06.101Z,39.93
2022-09-07T13:37:40.003Z,39.87
2022-09-07T13:40:11.790Z,40.01
2022-09-07T13:42:45.702Z,40.16
2022-09-07T13:45:27.126Z,40.41
2022-09-07T13:48:19.445Z,39.54
2022-09-07T13:51:06.395Z,39.36
2022-09-07T13:54:03.327Z,39.29
2022-09-07T13:56:40.707Z,38.62
2022-09-07T13:59:27.446Z,38.91
2022-09-07T14:01:55.216Z,38.49
2022-09-07T14:04:29.667Z,38.41
2022-09-07T14:07:13.042Z,38.12
2022-09-07T14:09:39.968Z,38.16
2022-09-07T14:12:16.285Z,37.48
2022-09-07T14:14:42.947Z,36.26
2022-09-07T14:17:15.353Z,37.09
2022-09-07T14:19:48.300Z,36.93
2022-09-07T14:22:20.306Z,37.20
2022-09-07T14:24:48.538Z,37.17
2022-09-07T14:27:39.980Z,37.74
2022-09-07T14:30:16.901Z,37.10
2022-09-07T14:32:44.160Z,36.79
2022-09-07T14:35:19.619Z,36.21
2022-09-07T14:37:47.448Z,36.60
2022-09-07T14:40:19.552Z,37.22
2022-09-07T14:42:47.320Z,37.43
2022-09-07T14:45:22.613Z,37.36
2022-09-07T14:47:54.553Z,37.73
2022-09-07T14:50:24.653Z,37.91
2022-09-07T14:55:42.917Z,37.57
2022-09-07T14:58:15.328Z,37.61
2022-09-07T15:00:47.516Z,38.18
2022-09-07T15:03:54.004Z,38.42
2022-09-07T15:09:36.187Z,38.28
2022-09-07T15:12:18.931Z,38.42
2022-09-07T15:14:47.895Z,38.45
2022-09-07T15:17:48.303Z,38.92
2022-09-07T15:20:34.988Z,38.86
2022-09-07T15:23:05.200Z,38.54
2022-09-07T15:25:36.994Z,38.44
2022-09-07T15:28:03.847Z,38.09
2022-09-07T15:30:33.522Z,38.27
2022-09-07T15:33:00.430Z,38.83
2022-09-07T15:35:27.067Z,38.44
2022-09-07T15:38:02.429Z,38.79
2022-09-07T15:41:03.620Z,38.35
2022-09-07T15:43:28.548Z,38.24
2022-09-07T15:45:55.735Z,38.13
2022-09-07T15:48:25.939Z,37.82
2022-09-07T15:51:01.535Z,38.79
2022-09-07T15:56:20.332Z,39.13
2022-09-07T15:58:56.389Z,39.37
2022-09-07T16:04:15.801Z,39.96
2022-09-07T16:06:47.866Z,40.28
2022-09-07T16:09:15.507Z,40.61
2022-09-07T16:11:42.086Z,41.24
2022-09-07T16:14:11.758Z,40.83
2022-09-07T16:19:25.114Z,41.71
2022-09-07T16:21:51.685Z,41.45
2022-09-07T16:24:18.277Z,42.23
2022-09-07T16:26:44.937Z,42.36
2022-09-07T16:29:11.672Z,41.91
2022-09-07T16:32:44.000Z,42.90
2022-09-07T16:34:27.054Z,42.62
2022-09-07T16:36:53.613Z,42.94
2022-09-07T16:39:20.387Z,43.13
2022-09-07T16:41:51.891Z,42.90
2022-09-07T16:44:18.989Z,42.83
2022-09-07T16:46:45.543Z,43.32
2022-09-07T16:49:12.344Z,43.67
2022-09-07T16:51:39.687Z,43.92
2022-09-07T16:54:08.741Z,43.64
2022-09-07T16:56:38.950Z,44.17
2022-09-07T16:59:11.074Z,44.09
2022-09-07T17:01:38.094Z,44.29
2022-09-07T17:04:10.307Z,44.35
2022-09-07T17:06:38.082Z,44.22
2022-09-07T17:09:07.539Z,44.91
2022-09-07T17:11:37.429Z,45.29
2022-09-07T17:14:06.796Z,45.38
2022-09-07T17:16:36.901Z,45.38
2022-09-07T17:21:55.495Z,46.18
2022-09-07T17:24:24.117Z,46.32
2022-09-07T17:26:50.708Z,46.79
2022-09-07T17:29:17.303Z,46.87
2022-09-07T17:34:33.740Z,47.31
2022-09-07T17:37:01.238Z,47.30
2022-09-07T17:39:28.603Z,47.95
2022-09-07T17:41:55.275Z,47.63
2022-09-07T17:44:23.574Z,48.60
2022-09-07T17:46:50.724Z,48.81
2022-09-07T17:49:17.837Z,48.96
2022-09-07T17:51:47.360Z,48.92
2022-09-07T17:54:17.369Z,49.67
2022-09-07T17:56:45.990Z,49.75
2022-09-07T18:02:02.086Z,49.78
2022-09-07T18:04:28.982Z,50.19
2022-09-07T18:06:58.224Z,50.62
2022-09-07T18:09:24.773Z,50.57
2022-09-07T18:11:51.426Z,50.81
2022-09-07T18:14:19.166Z,51.59
2022-09-07T18:16:48.815Z,51.70
2022-09-07T18:19:15.859Z,51.81
2022-09-07T18:21:43.640Z,51.82
2022-09-07T18:24:19.227Z,51.83
2022-09-07T18:26:51.250Z,52.19
2022-09-07T18:29:33.876Z,52.29
2022-09-07T18:32:08.074Z,52.31
2022-09-07T18:34:36.330Z,52.26
2022-09-07T18:37:05.495Z,52.90
2022-09-07T18:39:33.465Z,53.11
2022-09-07T18:42:00.061Z,53.07
2022-09-07T18:47:27.932Z,54.11
2022-09-07T18:49:55.200Z,53.30
2022-09-07T18:55:11.396Z,54.28
2022-09-07T18:57:38.606Z,54.75
2022-09-07T19:00:07.865Z,54.75
2022-09-07T19:02:35.542Z,55.40
2022-09-07T19:07:48.947Z,55.86
2022-09-07T19:10:16.852Z,55.80
2022-09-07T19:12:45.914Z,55.81
2022-09-07T19:15:15.258Z,55.70
2022-09-07T19:17:41.898Z,56.32
2022-09-07T19:20:09.193Z,56.54
2022-09-07T19:22:35.766Z,56.88
2022-09-07T19:25:02.287Z,57.37
2022-09-07T19:27:33.002Z,57.47
2022-09-07T19:29:59.642Z,57.98
2022-09-07T19:32:26.174Z,57.74
2022-09-07T19:34:54.689Z,57.84
2022-09-07T19:37:28.826Z,58.14
2022-09-07T19:39:59.119Z,58.08
2022-09-07T19:42:25.948Z,58.25
2022-09-07T19:44:54.086Z,58.77
2022-09-07T19:47:21.778Z,58.27
2022-09-07T19:49:48.354Z,58.33
2022-09-07T19:52:15.441Z,58.67
2022-09-07T19:54:44.412Z,58.59
2022-09-07T19:57:11.095Z,58.63
2022-09-07T19:59:37.627Z,59.08
2022-09-07T20:02:07.450Z,58.72
2022-09-07T20:04:36.206Z,59.33
2022-09-07T20:07:03.013Z,59.43
2022-09-07T20:09:29.571Z,59.82
2022-09-07T20:11:56.097Z,60.22
2022-09-07T20:14:22.631Z,60.61
2022-09-07T20:16:49.194Z,60.91
2022-09-07T20:19:15.854Z,61.31
2022-09-07T20:21:42.865Z,61.41
2022-09-07T20:24:12.040Z,61.34
2022-09-07T20:26:38.590Z,62.06
2022-09-07T20:29:26.246Z,62.32
2022-09-07T20:31:53.606Z,62.65
2022-09-07T20:34:20.390Z,62.52
2022-09-07T20:36:49.467Z,63.00
2022-09-07T20:39:16.480Z,63.03
2022-09-07T20:41:45.527Z,62.77
2022-09-07T20:44:12.217Z,62.91
2022-09-07T20:46:38.811Z,62.92
2022-09-07T20:49:05.764Z,63.36
2022-09-07T20:51:32.500Z,63.27
2022-09-07T20:53:59.211Z,63.93
2022-09-07T20:56:27.974Z,63.64
2022-09-07T20:59:00.468Z,63.98
2022-09-07T21:01:28.566Z,64.32
2022-09-07T21:03:57.264Z,64.47
2022-09-07T21:06:25.155Z,64.31
2022-09-07T21:08:52.410Z,64.85
2022-09-07T21:11:27.583Z,65.07
2022-09-07T21:13:59.330Z,65.26
2022-09-07T21:16:29.200Z,65.30
2022-09-07T21:19:00.425Z,65.48
2022-09-07T21:21:29.897Z,65.25
2022-09-07T21:23:59.433Z,65.29
2022-09-07T21:26:30.146Z,65.26
2022-09-07T21:29:01.106Z,64.92
2022-09-07T21:31:31.947Z,64.79
2022-09-07T21:34:00.293Z,64.61
2022-09-07T21:36:29.479Z,64.93
2022-09-07T21:38:58.572Z,64.93
2022-09-07T21:41:25.624Z,64.83
2022-09-07T21:43:59.816Z,64.56
2022-09-07T21:46:27.567Z,65.08
2022-09-07T21:48:55.738Z,64.93
2022-09-07T21:51:27.828Z,65.01
2022-09-07T21:54:00.874Z,65.07
2022-09-07T21:56:29.461Z,65.33
2022-09-07T21:58:58.208Z,65.58
2022-09-07T22:01:26.514Z,65.81
2022-09-07T22:03:59.006Z,65.71
2022-09-07T22:06:32.275Z,65.88
2022-09-07T22:09:02.709Z,65.80
2022-09-07T22:11:32.239Z,65.82
2022-09-07T22:14:01.815Z,65.83
2022-09-07T22:16:29.278Z,66.02
2022-09-07T22:19:01.079Z,65.73
2022-09-07T22:21:29.118Z,65.61
2022-09-07T22:24:04.068Z,65.86
2022-09-07T22:26:37.627Z,65.34
2022-09-07T22:29:06.455Z,65.66
2022-09-07T22:31:35.360Z,65.47
2022-09-07T22:34:04.226Z,65.25
2022-09-07T22:36:42.360Z,65.56
2022-09-07T22:39:15.196Z,65.26
2022-09-07T22:41:45.749Z,65.24
2022-09-07T22:44:16.321Z,65.35
2022-09-07T22:46:44.451Z,65.91
2022-09-07T22:49:15.916Z,66.70
2022-09-07T22:51:45.440Z,66.67
2022-09-07T22:54:12.302Z,66.53
2022-09-07T22:56:41.673Z,66.38
2022-09-07T22:59:12.174Z,66.49
2022-09-07T23:01:39.506Z,66.73
2022-09-07T23:04:09.204Z,66.98
2022-09-07T23:06:38.560Z,67.07
2022-09-07T23:09:08.151Z,67.03
2022-09-07T23:11:35.209Z,67.42
2022-09-07T23:14:04.406Z,67.17
2022-09-07T23:16:31.067Z,67.40
2022-09-07T23:18:59.172Z,67.40
2022-09-07T23:21:27.371Z,67.59
2022-09-07T23:23:56.901Z,67.78
2022-09-07T23:26:25.090Z,67.67
2022-09-07T23:28:53.184Z,67.63
2022-09-07T23:31:20.434Z,67.32
2022-09-07T23:33:47.228Z,67.38
2022-09-07T23:36:17.349Z,67.55
2022-09-07T23:38:47.075Z,67.96
2022-09-07T23:41:18.012Z,68.02
2022-09-07T23:43:46.832Z,68.48
2022-09-07T23:46:16.609Z,68.68
2022-09-07T23:48:47.428Z,68.67
2022-09-07T23:51:14.759Z,68.96
2022-09-07T23:53:41.392Z,69.25
2022-09-07T23:56:11.545Z,69.14
2022-09-07T23:58:38.812Z,69.21
